Buoy 32622

sailwx.info

Track history (hours):
 
Tides and Currents Weather Stations Pressure Air Temp Water Temp Dewpoint Dewpoint Depression Visibility Wind Speed Wind Dir Waves Ship Positions

Aadnyj

Last reported at 2015-Apr-30 18:12 UTC. Time now 2015-May-22 22:17 UTC.
Position S 23°47' W 164°01'.
Warning: this ship's position is 22 days out of date.

Length 56 m.

Type: Towing. MMSI: 413600286.

Date/timePositionNaut miles runAvg speedWind from/ knotsBaromVisibWave heightAir tempDewpointWater temp
2015-Apr-30 18:12S 23°47' W 164°01'0 0.0
2015-Apr-30 17:24S 23°47' W 164°01'0 0.8
2015-Apr-30 16:58S 23°47' W 164°01'0 0.4
2015-Apr-30 16:21S 23°47' W 164°01'0 0.0
2015-Apr-30 15:45S 23°47' W 164°01'0 0.8
2015-Apr-30 15:14S 23°47' W 164°01'0 0.8
2015-Apr-30 14:42S 23°48' W 164°01'0 0.0
2015-Apr-30 14:09S 23°48' W 164°01'0 0.1
2015-Apr-30 13:30S 23°48' W 164°01'0 0.0
2015-Apr-30 12:25S 23°48' W 164°01'1 0.5
2015-Apr-30 10:43S 23°48' W 164°02'1 0.4
2015-Apr-30 08:45S 23°48' W 164°03'0 3.3
2015-Apr-30 08:44S 23°48' W 164°03'0 0.6
2015-Apr-30 07:59S 23°48' W 164°03'0 0.4
2015-Apr-30 07:01S 23°47' W 164°02'1 0.3
2015-Apr-30 05:05S 23°47' W 164°02'0 0.0
2015-Apr-30 05:00S 23°47' W 164°02'1 0.8
2015-Apr-30 04:00S 23°46' W 164°03'2 1.7
2015-Apr-30 02:50S 23°45' W 164°01'1 1.8
2015-Apr-30 02:16S 23°45' W 164°02'2 0.4
2015-Apr-29 20:13S 23°44' W 164°00'1 0.3
2015-Apr-29 16:52S 23°44' W 163°59'0 0.3
2015-Apr-29 16:16S 23°44' W 163°59'0 0.3
2015-Apr-29 15:08S 23°44' W 163°59'0 0.2
2015-Apr-29 12:41S 23°45' W 163°59'1 0.2
2015-Apr-29 09:02S 23°45' W 163°59'0 0.0
2015-Apr-29 08:16S 23°45' W 163°59'1 0.3
2015-Apr-29 05:50S 23°46' W 163°59'1 0.6
2015-Apr-29 04:11S 23°45' W 163°59'2 1.4
2015-Apr-29 03:01S 23°44' W 163°58'1 0.3
2015-Apr-29 01:22S 23°44' W 163°58'0 0.0
2015-Apr-28 19:53S 23°44' W 163°57'0 0.2
2015-Apr-28 18:57S 23°44' W 163°57'0 1.6
2015-Apr-28 18:54S 23°44' W 163°57'0 0.4
2015-Apr-28 18:28S 23°44' W 163°57'2 0.5
2015-Apr-28 13:55S 23°46' W 163°56'1 0.4
2015-Apr-28 11:06S 23°46' W 163°55'3 0.7
2015-Apr-28 06:01S 23°50' W 163°56'1 8.5
2015-Apr-28 05:55S 23°50' W 163°57'0 0.0
2015-Apr-28 04:29S 23°50' W 163°57'0 0.0
2015-Apr-28 04:26S 23°50' W 163°57'0 9.8
2015-Apr-28 04:25S 23°50' W 163°57'0 0.0
2015-Apr-28 04:15S 23°50' W 163°57'0 0.1
2015-Apr-28 03:04S 23°50' W 163°57'4 0.8
2015-Apr-27 21:50S 23°53' W 164°01'0 0.3
2015-Apr-27 20:09S 23°53' W 164°00'0 0.0
2015-Apr-27 19:15S 23°53' W 164°00'0 1.6
2015-Apr-27 18:57S 23°53' W 164°01'1 0.4
2015-Apr-27 17:15S 23°54' W 164°01'0 0.0
2015-Apr-27 15:56S 23°54' W 164°01'0 0.0
2015-Apr-27 15:53S 23°54' W 164°01'1 0.5
2015-Apr-27 14:08S 23°54' W 164°02'1 0.4
2015-Apr-27 12:58S 23°55' W 164°02'1 0.7
2015-Apr-27 11:17S 23°55' W 164°03'1 0.4
2015-Apr-27 08:58S 23°55' W 164°04'0 0.4
2015-Apr-27 08:06S 23°55' W 164°05'2 0.4
2015-Apr-27 03:17S 23°57' W 164°05'0 0.0
2015-Apr-27 03:04S 23°57' W 164°05'2 1.4
2015-Apr-27 01:45S 23°59' W 164°05'2 1.2
2015-Apr-27 00:03S 23°60' W 164°07'8 1.0
2015-Apr-26 16:12S 24°05' W 164°14'0 0.6
2015-Apr-26 15:59S 24°05' W 164°14'1 0.8
2015-Apr-26 14:48S 24°05' W 164°15'1 0.6
2015-Apr-26 13:09S 24°05' W 164°16'3 0.8
2015-Apr-26 09:16S 24°03' W 164°18'1 0.3
2015-Apr-26 05:30S 24°02' W 164°19'0 0.2
2015-Apr-26 04:47S 24°02' W 164°19'1 0.5
2015-Apr-26 03:31S 24°01' W 164°19'0 0.3
2015-Apr-26 03:06S 24°01' W 164°19'1 0.5
2015-Apr-26 00:14S 24°02' W 164°20'2 0.5
2015-Apr-25 19:56S 24°02' W 164°22'0 0.5
2015-Apr-25 19:12S 24°02' W 164°23'1 0.6
2015-Apr-25 18:22S 24°02' W 164°23'1 8.8
2015-Apr-25 18:16S 24°02' W 164°24'0 0.1
2015-Apr-25 16:09S 24°03' W 164°25'3 1.0
2015-Apr-25 13:24S 24°03' W 164°27'1 7.2
2015-Apr-25 13:12S 24°03' W 164°29'4 0.7
2015-Apr-25 08:00S 24°02' W 164°33'3 0.9
2015-Apr-25 04:54S 24°01' W 164°35'1 1.3
2015-Apr-25 04:23S 24°01' W 164°36'0 0.5
2015-Apr-25 04:16S 24°01' W 164°36'0 1.7
2015-Apr-25 04:00S 24°00' W 164°36'1 0.7
2015-Apr-25 03:15S 24°00' W 164°37'4 0.7
2015-Apr-24 21:59S 23°58' W 164°40'1 0.3
2015-Apr-24 20:15S 23°57' W 164°40'0 0.1
2015-Apr-24 17:14S 23°57' W 164°40'1 1.1
2015-Apr-24 16:27S 23°57' W 164°41'1 0.6
2015-Apr-24 14:47S 23°58' W 164°42'1 0.7
2015-Apr-24 13:31S 23°58' W 164°43'2 1.1
2015-Apr-24 11:54S 23°59' W 164°45'3 1.1
2015-Apr-24 09:06S 23°59' W 164°48'7 1.2
2015-Apr-24 03:11S 23°59' W 164°55'4 0.7
2015-Apr-23 21:36S 23°58' W 164°60'1 1.0
2015-Apr-23 20:37S 23°58' W 165°01'1 0.9
2015-Apr-23 19:57S 23°57' W 165°01'1 1.1
2015-Apr-23 19:02S 23°57' W 165°02'1 0.7
2015-Apr-23 17:43S 23°56' W 165°02'1 0.9
2015-Apr-23 16:26S 23°55' W 165°03'0 0.0
2015-Apr-23 16:04S 23°55' W 165°03'1 5.4
2015-Apr-23 15:53S 23°55' W 165°04'5 0.5
2015-Apr-23 05:19S 23°55' W 165°10'4 2.2
2015-Apr-23 03:45S 23°55' W 165°14'0 4.1
2015-Apr-23 03:40S 23°55' W 165°14'1 2.0
2015-Apr-23 03:08S 23°56' W 165°15'5 0.9
2015-Apr-22 21:54S 23°54' W 165°20'3 1.8
2015-Apr-22 20:12S 23°53' W 165°23'4 1.2
2015-Apr-22 16:49S 23°51' W 165°27'2 1.1
2015-Apr-22 15:05S 23°50' W 165°28'2 1.8
2015-Apr-22 13:59S 23°48' W 165°30'0 0.0
2015-Apr-22 12:15S 23°48' W 165°30'2 0.7
2015-Apr-22 09:01S 23°47' W 165°32'1 1.1
2015-Apr-22 08:10S 23°47' W 165°33'3 0.7
2015-Apr-22 04:16S 23°46' W 165°36'0 4.0
2015-Apr-22 04:14S 23°46' W 165°36'2 0.6
2015-Apr-22 01:00S 23°46' W 165°38'3 0.8
2015-Apr-21 20:39S 23°45' W 165°42'1 0.7
2015-Apr-21 19:38S 23°44' W 165°42'1 1.1
2015-Apr-21 18:56S 23°45' W 165°43'129.7
2015-Apr-21 18:53S 23°44' W 165°44'114.8
2015-Apr-21 18:47S 23°45' W 165°43'2 0.9
2015-Apr-21 17:09S 23°44' W 165°44'0 1.0
2015-Apr-21 16:51S 23°44' W 165°44'1 0.9
2015-Apr-21 15:16S 23°44' W 165°45'0 0.0
2015-Apr-21 15:04S 23°44' W 165°45'2 2.4
2015-Apr-21 14:09S 23°42' W 165°47'1 0.3
2015-Apr-21 10:09S 23°41' W 165°48'1 0.9
2015-Apr-21 08:30S 23°41' W 165°50'4 1.0
2015-Apr-21 04:48S 23°39' W 165°53'1 0.9
2015-Apr-21 04:03S 23°39' W 165°54'0 4.9
2015-Apr-21 04:02S 23°39' W 165°54'3 2.9
2015-Apr-21 03:05S 23°37' W 165°56'0 0.0
2015-Apr-21 02:51S 23°37' W 165°56'0 0.1
2015-Apr-21 01:11S 23°37' W 165°56'2 0.5
2015-Apr-20 20:49S 23°35' W 165°58'0 0.0
2015-Apr-20 20:00S 23°35' W 165°58'1 0.8
2015-Apr-20 19:15S 23°34' W 165°58'  
Track history (hours):
 
Tides and Currents Weather Stations Pressure Air Temp Water Temp Dewpoint Dewpoint Depression Visibility Wind Speed Wind Dir Waves Ship Positions

Aadnyj

Last reported at 2015-Apr-30 18:12 UTC. Time now 2015-May-22 22:17 UTC.
Position S 23°47' W 164°01'.
Warning: this ship's position is 22 days out of date.

Length 56 m.

Type: Towing. MMSI: 413600286.

Date/timePositionNaut miles runAvg speedWind from/ knotsBaromVisibWave heightAir tempDewpointWater temp
2015-Apr-30 18:12S 23°47' W 164°01'0 0.0
2015-Apr-30 17:24S 23°47' W 164°01'0 0.8
2015-Apr-30 16:58S 23°47' W 164°01'0 0.4
2015-Apr-30 16:21S 23°47' W 164°01'0 0.0
2015-Apr-30 15:45S 23°47' W 164°01'0 0.8
2015-Apr-30 15:14S 23°47' W 164°01'0 0.8
2015-Apr-30 14:42S 23°48' W 164°01'0 0.0
2015-Apr-30 14:09S 23°48' W 164°01'0 0.1
2015-Apr-30 13:30S 23°48' W 164°01'0 0.0
2015-Apr-30 12:25S 23°48' W 164°01'1 0.5
2015-Apr-30 10:43S 23°48' W 164°02'1 0.4
2015-Apr-30 08:45S 23°48' W 164°03'0 3.3
2015-Apr-30 08:44S 23°48' W 164°03'0 0.6
2015-Apr-30 07:59S 23°48' W 164°03'0 0.4
2015-Apr-30 07:01S 23°47' W 164°02'1 0.3
2015-Apr-30 05:05S 23°47' W 164°02'0 0.0
2015-Apr-30 05:00S 23°47' W 164°02'1 0.8
2015-Apr-30 04:00S 23°46' W 164°03'2 1.7
2015-Apr-30 02:50S 23°45' W 164°01'1 1.8
2015-Apr-30 02:16S 23°45' W 164°02'2 0.4
2015-Apr-29 20:13S 23°44' W 164°00'1 0.3
2015-Apr-29 16:52S 23°44' W 163°59'0 0.3
2015-Apr-29 16:16S 23°44' W 163°59'0 0.3
2015-Apr-29 15:08S 23°44' W 163°59'0 0.2
2015-Apr-29 12:41S 23°45' W 163°59'1 0.2
2015-Apr-29 09:02S 23°45' W 163°59'0 0.0
2015-Apr-29 08:16S 23°45' W 163°59'1 0.3
2015-Apr-29 05:50S 23°46' W 163°59'1 0.6
2015-Apr-29 04:11S 23°45' W 163°59'2 1.4
2015-Apr-29 03:01S 23°44' W 163°58'1 0.3
2015-Apr-29 01:22S 23°44' W 163°58'0 0.0
2015-Apr-28 19:53S 23°44' W 163°57'0 0.2
2015-Apr-28 18:57S 23°44' W 163°57'0 1.6
2015-Apr-28 18:54S 23°44' W 163°57'0 0.4
2015-Apr-28 18:28S 23°44' W 163°57'2 0.5
2015-Apr-28 13:55S 23°46' W 163°56'1 0.4
2015-Apr-28 11:06S 23°46' W 163°55'3 0.7
2015-Apr-28 06:01S 23°50' W 163°56'1 8.5
2015-Apr-28 05:55S 23°50' W 163°57'0 0.0
2015-Apr-28 04:29S 23°50' W 163°57'0 0.0
2015-Apr-28 04:26S 23°50' W 163°57'0 9.8
2015-Apr-28 04:25S 23°50' W 163°57'0 0.0
2015-Apr-28 04:15S 23°50' W 163°57'0 0.1
2015-Apr-28 03:04S 23°50' W 163°57'4 0.8
2015-Apr-27 21:50S 23°53' W 164°01'0 0.3
2015-Apr-27 20:09S 23°53' W 164°00'0 0.0
2015-Apr-27 19:15S 23°53' W 164°00'0 1.6
2015-Apr-27 18:57S 23°53' W 164°01'1 0.4
2015-Apr-27 17:15S 23°54' W 164°01'0 0.0
2015-Apr-27 15:56S 23°54' W 164°01'0 0.0
2015-Apr-27 15:53S 23°54' W 164°01'1 0.5
2015-Apr-27 14:08S 23°54' W 164°02'1 0.4
2015-Apr-27 12:58S 23°55' W 164°02'1 0.7
2015-Apr-27 11:17S 23°55' W 164°03'1 0.4
2015-Apr-27 08:58S 23°55' W 164°04'0 0.4
2015-Apr-27 08:06S 23°55' W 164°05'2 0.4
2015-Apr-27 03:17S 23°57' W 164°05'0 0.0
2015-Apr-27 03:04S 23°57' W 164°05'2 1.4
2015-Apr-27 01:45S 23°59' W 164°05'2 1.2
2015-Apr-27 00:03S 23°60' W 164°07'8 1.0
2015-Apr-26 16:12S 24°05' W 164°14'0 0.6
2015-Apr-26 15:59S 24°05' W 164°14'1 0.8
2015-Apr-26 14:48S 24°05' W 164°15'1 0.6
2015-Apr-26 13:09S 24°05' W 164°16'3 0.8
2015-Apr-26 09:16S 24°03' W 164°18'1 0.3
2015-Apr-26 05:30S 24°02' W 164°19'0 0.2
2015-Apr-26 04:47S 24°02' W 164°19'1 0.5
2015-Apr-26 03:31S 24°01' W 164°19'0 0.3
2015-Apr-26 03:06S 24°01' W 164°19'1 0.5
2015-Apr-26 00:14S 24°02' W 164°20'2 0.5
2015-Apr-25 19:56S 24°02' W 164°22'0 0.5
2015-Apr-25 19:12S 24°02' W 164°23'1 0.6
2015-Apr-25 18:22S 24°02' W 164°23'1 8.8
2015-Apr-25 18:16S 24°02' W 164°24'0 0.1
2015-Apr-25 16:09S 24°03' W 164°25'3 1.0
2015-Apr-25 13:24S 24°03' W 164°27'1 7.2
2015-Apr-25 13:12S 24°03' W 164°29'4 0.7
2015-Apr-25 08:00S 24°02' W 164°33'3 0.9
2015-Apr-25 04:54S 24°01' W 164°35'1 1.3
2015-Apr-25 04:23S 24°01' W 164°36'0 0.5
2015-Apr-25 04:16S 24°01' W 164°36'0 1.7
2015-Apr-25 04:00S 24°00' W 164°36'1 0.7
2015-Apr-25 03:15S 24°00' W 164°37'4 0.7
2015-Apr-24 21:59S 23°58' W 164°40'1 0.3
2015-Apr-24 20:15S 23°57' W 164°40'0 0.1
2015-Apr-24 17:14S 23°57' W 164°40'1 1.1
2015-Apr-24 16:27S 23°57' W 164°41'1 0.6
2015-Apr-24 14:47S 23°58' W 164°42'1 0.7
2015-Apr-24 13:31S 23°58' W 164°43'2 1.1
2015-Apr-24 11:54S 23°59' W 164°45'3 1.1
2015-Apr-24 09:06S 23°59' W 164°48'7 1.2
2015-Apr-24 03:11S 23°59' W 164°55'4 0.7
2015-Apr-23 21:36S 23°58' W 164°60'1 1.0
2015-Apr-23 20:37S 23°58' W 165°01'1 0.9
2015-Apr-23 19:57S 23°57' W 165°01'1 1.1
2015-Apr-23 19:02S 23°57' W 165°02'1 0.7
2015-Apr-23 17:43S 23°56' W 165°02'1 0.9
2015-Apr-23 16:26S 23°55' W 165°03'0 0.0
2015-Apr-23 16:04S 23°55' W 165°03'1 5.4
2015-Apr-23 15:53S 23°55' W 165°04'5 0.5
2015-Apr-23 05:19S 23°55' W 165°10'4 2.2
2015-Apr-23 03:45S 23°55' W 165°14'0 4.1
2015-Apr-23 03:40S 23°55' W 165°14'1 2.0
2015-Apr-23 03:08S 23°56' W 165°15'5 0.9
2015-Apr-22 21:54S 23°54' W 165°20'3 1.8
2015-Apr-22 20:12S 23°53' W 165°23'4 1.2
2015-Apr-22 16:49S 23°51' W 165°27'2 1.1
2015-Apr-22 15:05S 23°50' W 165°28'2 1.8
2015-Apr-22 13:59S 23°48' W 165°30'0 0.0
2015-Apr-22 12:15S 23°48' W 165°30'2 0.7
2015-Apr-22 09:01S 23°47' W 165°32'1 1.1
2015-Apr-22 08:10S 23°47' W 165°33'3 0.7
2015-Apr-22 04:16S 23°46' W 165°36'0 4.0
2015-Apr-22 04:14S 23°46' W 165°36'2 0.6
2015-Apr-22 01:00S 23°46' W 165°38'3 0.8
2015-Apr-21 20:39S 23°45' W 165°42'1 0.7
2015-Apr-21 19:38S 23°44' W 165°42'1 1.1
2015-Apr-21 18:56S 23°45' W 165°43'129.7
2015-Apr-21 18:53S 23°44' W 165°44'114.8
2015-Apr-21 18:47S 23°45' W 165°43'2 0.9
2015-Apr-21 17:09S 23°44' W 165°44'0 1.0
2015-Apr-21 16:51S 23°44' W 165°44'1 0.9
2015-Apr-21 15:16S 23°44' W 165°45'0 0.0
2015-Apr-21 15:04S 23°44' W 165°45'2 2.4
2015-Apr-21 14:09S 23°42' W 165°47'1 0.3
2015-Apr-21 10:09S 23°41' W 165°48'1 0.9
2015-Apr-21 08:30S 23°41' W 165°50'4 1.0
2015-Apr-21 04:48S 23°39' W 165°53'1 0.9
2015-Apr-21 04:03S 23°39' W 165°54'0 4.9
2015-Apr-21 04:02S 23°39' W 165°54'3 2.9
2015-Apr-21 03:05S 23°37' W 165°56'0 0.0
2015-Apr-21 02:51S 23°37' W 165°56'0 0.1
2015-Apr-21 01:11S 23°37' W 165°56'2 0.5
2015-Apr-20 20:49S 23°35' W 165°58'0 0.0
2015-Apr-20 20:00S 23°35' W 165°58'1 0.8
2015-Apr-20 19:15S 23°34' W 165°58'  

Dump ship's entire track history